Time;durP1;ratioP1;P1;durP2;ratioP2;P2;SDS_P1;SDS_P2;PMS_P1;PMS_P2;Temp;Humidity;BMP_temperature;BMP_pressure;BME280_temperature;BME280_humidity;BME280_pressure;Samples;Min_cycle;Max_cycle;Signal;HPM_P1;HPM_P2
2022/01/19 00:00:17;;;;;;;2.70;2.50;;;3.20;99.90;;;;;;5002525;28;20479;-77
2022/01/19 00:02:42;;;;;;;2.58;2.35;;;3.10;99.90;;;;;;5020451;28;20423;-76
2022/01/19 00:05:09;;;;;;;2.08;1.90;;;3.10;99.90;;;;;;4995343;28;20025;-76
2022/01/19 00:07:35;;;;;;;2.88;2.58;;;3.20;99.90;;;;;;5005654;28;20052;-76
2022/01/19 00:10:05;;;;;;;2.50;2.20;;;3.10;99.90;;;;;;5012373;28;20495;-76
2022/01/19 00:12:33;;;;;;;2.60;2.40;;;3.00;99.90;;;;;;4994409;28;20438;-77
2022/01/19 00:14:59;;;;;;;2.55;2.10;;;3.10;99.90;;;;;;5027125;28;20052;-76
2022/01/19 00:17:25;;;;;;;2.47;2.28;;;3.10;99.90;;;;;;5007358;28;20029;-76
2022/01/19 00:19:51;;;;;;;2.30;2.10;;;2.90;99.90;;;;;;5003553;28;20104;-78
2022/01/19 00:22:16;;;;;;;1.98;1.88;;;3.10;99.90;;;;;;5005693;28;20041;-77
2022/01/19 00:24:43;;;;;;;2.30;2.10;;;2.90;99.90;;;;;;5023593;28;20411;-76
2022/01/19 00:27:09;;;;;;;2.55;2.20;;;3.00;99.90;;;;;;5022312;28;20022;-74
2022/01/19 00:29:35;;;;;;;2.67;2.15;;;2.90;99.90;;;;;;5023264;28;20089;-74
2022/01/19 00:32:00;;;;;;;2.47;2.08;;;3.00;99.90;;;;;;5003170;28;20399;-73
2022/01/19 00:34:28;;;;;;;2.65;2.45;;;3.00;99.90;;;;;;5005805;28;20525;-73
2022/01/19 00:36:54;;;;;;;3.95;2.45;;;2.90;99.90;;;;;;5005297;28;20018;-74
2022/01/19 00:39:19;;;;;;;2.40;2.20;;;2.90;99.90;;;;;;5023282;28;20025;-75
2022/01/19 00:41:44;;;;;;;2.30;2.20;;;2.80;99.90;;;;;;5015779;28;20476;-74
2022/01/19 00:44:10;;;;;;;2.28;2.08;;;2.90;99.90;;;;;;5005424;28;20092;-74
2022/01/19 00:46:35;;;;;;;3.05;2.75;;;2.80;99.90;;;;;;5002203;28;20018;-73
2022/01/19 00:49:01;;;;;;;3.13;2.83;;;2.80;99.90;;;;;;5001815;28;20019;-74
2022/01/19 00:51:27;;;;;;;3.83;3.53;;;2.80;99.90;;;;;;5006520;28;20085;-74
2022/01/19 00:53:52;;;;;;;3.20;2.95;;;2.80;99.90;;;;;;5002215;28;20420;-75
2022/01/19 00:56:18;;;;;;;2.72;2.53;;;2.90;99.90;;;;;;4990502;28;20487;-73
2022/01/19 00:58:43;;;;;;;2.85;2.45;;;2.90;99.90;;;;;;5012110;28;20496;-74
2022/01/19 01:01:09;;;;;;;3.67;2.85;;;2.90;99.90;;;;;;4997415;28;20023;-75
2022/01/19 01:03:34;;;;;;;2.70;2.50;;;2.90;99.90;;;;;;5015594;28;20110;-74
2022/01/19 01:06:00;;;;;;;2.78;2.58;;;2.90;99.90;;;;;;5002213;28;20029;-75
2022/01/19 01:08:25;;;;;;;3.40;3.10;;;2.90;99.90;;;;;;5006394;28;20031;-75
2022/01/19 01:10:51;;;;;;;3.20;2.90;;;3.00;99.90;;;;;;4991308;28;20120;-74
2022/01/19 01:13:23;;;;;;;3.13;2.80;;;2.80;99.90;;;;;;5004953;28;20030;-75
2022/01/19 01:18:25;;;;;;;3.08;2.75;;;2.90;99.90;;;;;;5004738;28;20038;-74
2022/01/19 01:20:53;;;;;;;2.55;2.35;;;2.70;99.90;;;;;;5013100;28;20026;-75
2022/01/19 01:23:21;;;;;;;2.58;2.38;;;2.70;99.90;;;;;;5004033;28;20026;-74
2022/01/19 01:25:47;;;;;;;2.90;2.60;;;2.70;99.90;;;;;;5008542;28;20439;-73
2022/01/19 01:28:13;;;;;;;3.05;2.70;;;2.70;99.90;;;;;;5007105;28;20031;-74
2022/01/19 01:30:40;;;;;;;3.13;2.80;;;2.80;99.90;;;;;;5010262;28;20034;-75
2022/01/19 01:33:06;;;;;;;2.47;2.28;;;2.80;99.90;;;;;;4989532;28;20030;-74
2022/01/19 01:35:32;;;;;;;2.60;2.40;;;2.70;99.90;;;;;;5025787;28;20357;-74
2022/01/19 01:37:58;;;;;;;2.75;2.55;;;2.70;99.90;;;;;;5012809;28;20108;-75
2022/01/19 01:40:25;;;;;;;2.83;2.63;;;2.70;99.90;;;;;;4997155;28;20080;-75
2022/01/19 01:42:54;;;;;;;3.30;3.00;;;2.80;99.90;;;;;;5014825;28;20113;-75
2022/01/19 01:45:25;;;;;;;3.38;2.47;;;2.70;99.90;;;;;;4990968;28;20022;-74
2022/01/19 01:47:58;;;;;;;2.40;2.20;;;2.70;99.90;;;;;;5008468;28;20049;-74
2022/01/19 01:53:26;;;;;;;4.10;3.58;;;2.50;99.90;;;;;;5001738;28;20064;-73
2022/01/19 01:56:02;;;;;;;2.72;2.30;;;2.50;99.90;;;;;;5002070;28;20036;-73
2022/01/19 01:58:30;;;;;;;2.38;2.17;;;2.50;99.90;;;;;;4995046;28;20081;-74
2022/01/19 02:00:56;;;;;;;2.50;2.30;;;2.50;99.90;;;;;;5002170;28;20034;-75
2022/01/19 02:03:22;;;;;;;2.92;2.65;;;2.50;99.90;;;;;;5014672;28;20105;-76
2022/01/19 02:06:46;;;;;;;2.75;2.55;;;2.60;99.90;;;;;;4983959;28;20568;-76
2022/01/19 02:08:39;;;;;;;2.80;2.60;;;2.50;99.90;;;;;;4996373;28;20481;-76
2022/01/19 02:16:31;;;;;;;2.80;2.60;;;2.50;99.90;;;;;;5003338;28;20100;-75
2022/01/19 02:21:59;;;;;;;3.95;3.65;;;2.60;99.90;;;;;;5002086;28;20604;-76
2022/01/19 02:24:30;;;;;;;4.30;3.90;;;2.50;99.90;;;;;;5002180;28;20105;-76
2022/01/19 02:28:54;;;;;;;4.10;3.80;;;2.50;99.90;;;;;;5000643;28;20472;-75
2022/01/19 02:41:11;;;;;;;4.10;3.70;;;2.60;99.90;;;;;;4964830;28;20029;-75
2022/01/19 02:43:37;;;;;;;3.60;3.30;;;2.50;99.90;;;;;;4991142;28;20030;-74
2022/01/19 02:51:30;;;;;;;4.40;4.00;;;2.40;99.90;;;;;;5009047;28;20064;-74
2022/01/19 02:53:56;;;;;;;4.93;4.53;;;2.50;99.90;;;;;;5013574;28;20057;-74
2022/01/19 02:56:27;;;;;;;4.57;4.18;;;2.40;99.90;;;;;;5000409;28;20092;-75
2022/01/19 02:58:58;;;;;;;4.70;4.30;;;2.30;99.90;;;;;;4985449;28;20460;-75
2022/01/19 03:09:27;;;;;;;3.97;3.67;;;2.30;99.90;;;;;;5000525;28;20022;-77
2022/01/19 03:11:54;;;;;;;4.53;4.05;;;2.20;99.90;;;;;;4995762;28;20495;-76
2022/01/19 03:14:20;;;;;;;3.60;3.30;;;2.20;99.90;;;;;;5013343;28;20068;-76
2022/01/19 03:16:46;;;;;;;3.40;3.10;;;2.10;99.90;;;;;;4984758;28;20113;-76
2022/01/19 03:19:12;;;;;;;2.72;2.53;;;2.10;99.90;;;;;;5006465;28;20037;-75
2022/01/19 03:21:39;;;;;;;3.70;3.40;;;2.10;99.90;;;;;;5003964;28;20034;-75
2022/01/19 03:24:06;;;;;;;3.20;2.90;;;2.30;99.90;;;;;;4997491;28;20018;-75
2022/01/19 03:26:31;;;;;;;3.38;2.88;;;2.20;99.90;;;;;;5012496;28;20044;-75
2022/01/19 03:28:57;;;;;;;3.40;3.10;;;2.20;99.90;;;;;;5012703;28;20099;-72
2022/01/19 03:31:22;;;;;;;2.45;2.25;;;2.10;99.90;;;;;;4996656;28;20052;-73
2022/01/19 03:33:48;;;;;;;2.95;2.75;;;2.20;99.90;;;;;;5002781;28;20394;-74
2022/01/19 03:36:14;;;;;;;3.13;2.83;;;2.30;99.90;;;;;;5021225;28;20056;-74
2022/01/19 03:38:39;;;;;;;3.00;2.80;;;2.30;99.90;;;;;;4982280;28;20129;-74
2022/01/19 03:41:05;;;;;;;3.60;3.30;;;2.30;99.90;;;;;;5012430;28;20091;-75
2022/01/19 03:43:31;;;;;;;3.72;3.42;;;2.20;99.90;;;;;;5007981;28;20497;-74
2022/01/19 03:45:59;;;;;;;3.63;3.33;;;2.30;99.90;;;;;;4987794;28;20037;-74
2022/01/19 03:50:57;;;;;;;3.15;2.88;;;2.00;99.90;;;;;;5012653;28;20547;-74
2022/01/19 03:53:22;;;;;;;3.10;2.90;;;2.10;99.90;;;;;;4999588;28;20118;-74
2022/01/19 03:55:48;;;;;;;3.90;3.60;;;1.80;99.90;;;;;;4995115;28;20026;-75
2022/01/19 03:58:13;;;;;;;2.97;2.78;;;1.90;99.90;;;;;;4976392;28;20645;-75
2022/01/19 04:00:42;;;;;;;3.33;3.10;;;1.80;99.90;;;;;;5004407;28;20030;-76
2022/01/19 04:03:12;;;;;;;3.50;3.20;;;1.70;99.90;;;;;;4999197;28;20156;-75
2022/01/19 04:08:15;;;;;;;3.72;2.92;;;1.90;99.90;;;;;;5012120;28;20017;-76
2022/01/19 04:10:40;;;;;;;3.00;2.70;;;2.00;99.90;;;;;;4998853;28;20369;-75
2022/01/19 04:13:22;;;;;;;3.25;2.95;;;2.00;99.90;;;;;;4983465;28;20057;-74
2022/01/19 04:15:48;;;;;;;3.63;3.33;;;2.00;99.90;;;;;;4999610;28;20152;-74
2022/01/19 04:18:14;;;;;;;4.00;3.70;;;2.00;99.90;;;;;;4985409;28;20026;-75
2022/01/19 04:20:42;;;;;;;5.18;4.78;;;2.00;99.90;;;;;;4991870;28;20026;-73
2022/01/19 04:23:07;;;;;;;5.25;4.85;;;1.90;99.90;;;;;;5001942;28;20105;-73
2022/01/19 04:25:33;;;;;;;4.82;4.43;;;1.90;99.90;;;;;;4996204;28;20073;-73
2022/01/19 04:27:59;;;;;;;4.38;4.00;;;2.00;99.90;;;;;;5012876;28;20037;-73
2022/01/19 04:30:27;;;;;;;5.15;4.65;;;2.00;99.90;;;;;;4999122;28;20029;-71
2022/01/19 04:35:29;;;;;;;5.72;5.32;;;2.00;99.90;;;;;;5011755;28;20037;-72
2022/01/19 04:54:42;;;;;;;5.60;5.10;;;1.80;99.90;;;;;;4999257;28;20045;-75
2022/01/19 05:05:28;;;;;;;5.28;4.85;;;1.80;99.90;;;;;;5011771;28;20161;-74
2022/01/19 05:07:59;;;;;;;5.18;4.68;;;1.80;99.90;;;;;;4998223;28;20018;-75
2022/01/19 05:16:11;;;;;;;6.30;5.70;;;1.80;99.90;;;;;;4931718;29;20111;-75
2022/01/19 05:18:37;;;;;;;6.75;6.10;;;1.80;99.90;;;;;;4931830;29;20111;-74
2022/01/19 05:21:02;;;;;;;6.05;5.45;;;1.90;99.90;;;;;;4945413;28;20480;-74
2022/01/19 05:23:28;;;;;;;6.50;5.90;;;1.80;99.90;;;;;;5004448;28;20030;-74
2022/01/19 05:25:53;;;;;;;6.68;5.97;;;1.80;99.90;;;;;;4980692;28;20040;-73
2022/01/19 05:28:19;;;;;;;6.40;5.90;;;1.80;99.90;;;;;;4981877;28;20066;-73
2022/01/19 05:30:44;;;;;;;7.70;7.05;;;1.80;99.90;;;;;;4997063;28;20034;-73
2022/01/19 05:33:10;;;;;;;8.02;7.32;;;1.80;99.90;;;;;;4999482;28;20030;-73
2022/01/19 05:35:36;;;;;;;7.55;6.95;;;1.80;99.90;;;;;;5010246;28;20060;-74
2022/01/19 05:38:01;;;;;;;7.38;6.78;;;1.80;99.90;;;;;;5011271;28;20061;-74
2022/01/19 05:40:27;;;;;;;7.30;6.70;;;1.90;99.90;;;;;;4997731;28;20025;-73
2022/01/19 05:42:53;;;;;;;7.10;6.50;;;1.90;99.90;;;;;;4998605;28;20054;-73
2022/01/19 05:45:19;;;;;;;7.15;6.45;;;1.90;99.90;;;;;;5004681;28;20027;-74
2022/01/19 05:47:45;;;;;;;8.07;6.95;;;1.80;99.90;;;;;;5007541;28;20066;-74
2022/01/19 05:50:12;;;;;;;7.57;6.88;;;1.80;99.90;;;;;;5001299;28;20160;-73
2022/01/19 05:52:38;;;;;;;8.02;7.32;;;1.70;99.90;;;;;;4984683;28;20022;-74
2022/01/19 05:55:04;;;;;;;6.80;6.20;;;1.80;99.90;;;;;;4990552;28;20033;-73
2022/01/19 05:57:31;;;;;;;7.13;6.50;;;1.80;99.90;;;;;;5007194;28;20026;-74
2022/01/19 05:59:57;;;;;;;7.30;6.60;;;1.80;99.90;;;;;;5008515;28;20037;-73
2022/01/19 06:02:22;;;;;;;7.43;6.75;;;1.80;99.90;;;;;;4989499;28;20018;-73
2022/01/19 06:04:49;;;;;;;7.30;6.70;;;1.80;99.90;;;;;;5001170;28;20172;-74
2022/01/19 06:07:15;;;;;;;7.43;6.78;;;1.80;99.90;;;;;;4996702;28;20022;-76
2022/01/19 06:12:11;;;;;;;6.22;5.63;;;1.70;99.90;;;;;;5001729;28;20030;-73
2022/01/19 06:14:39;;;;;;;6.90;6.30;;;1.70;99.90;;;;;;4994704;28;20065;-73
2022/01/19 06:17:07;;;;;;;7.60;6.90;;;1.60;99.90;;;;;;4990416;28;20124;-73
2022/01/19 06:19:33;;;;;;;7.45;6.75;;;1.50;99.90;;;;;;5014354;28;20076;-75
2022/01/19 06:21:59;;;;;;;8.05;7.35;;;1.40;99.90;;;;;;4982933;28;20030;-75
2022/01/19 06:24:24;;;;;;;8.25;7.45;;;1.50;99.90;;;;;;4984306;28;20079;-75
2022/01/19 06:26:50;;;;;;;8.32;7.47;;;1.40;99.90;;;;;;5000971;28;20362;-74
2022/01/19 06:29:16;;;;;;;12.73;11.50;;;1.50;99.90;;;;;;5007415;28;20038;-74
2022/01/19 06:31:42;;;;;;;12.15;10.95;;;1.50;99.90;;;;;;5007717;28;20499;-76
2022/01/19 06:34:07;;;;;;;8.50;7.30;;;1.50;99.90;;;;;;5001139;28;20022;-75
2022/01/19 06:36:33;;;;;;;8.80;7.30;;;1.50;99.90;;;;;;4983231;28;20046;-74
2022/01/19 06:38:59;;;;;;;7.55;6.47;;;1.50;99.90;;;;;;5013549;28;20384;-75
2022/01/19 06:41:24;;;;;;;7.82;7.03;;;1.60;99.90;;;;;;4982615;28;20128;-76
2022/01/19 06:43:50;;;;;;;6.30;5.70;;;1.50;99.90;;;;;;5006701;28;20090;-75
2022/01/19 06:46:16;;;;;;;6.85;6.20;;;1.50;99.90;;;;;;4977124;28;20469;-74
2022/01/19 06:48:42;;;;;;;7.43;6.72;;;1.40;99.90;;;;;;5006537;28;20034;-75
2022/01/19 06:51:07;;;;;;;8.05;7.32;;;1.40;99.90;;;;;;5006906;28;20065;-75
2022/01/19 06:53:33;;;;;;;7.50;6.80;;;1.50;99.90;;;;;;4983600;28;20061;-75
2022/01/19 06:55:58;;;;;;;8.25;7.45;;;1.30;99.90;;;;;;4982687;28;20031;-75
2022/01/19 06:58:25;;;;;;;9.20;8.30;;;1.30;99.90;;;;;;5006083;28;20037;-75
2022/01/19 07:00:51;;;;;;;8.52;7.65;;;1.40;99.90;;;;;;4989889;28;20038;-75
2022/01/19 07:03:17;;;;;;;8.18;7.47;;;1.30;99.90;;;;;;5006319;28;20030;-75
2022/01/19 07:05:42;;;;;;;8.77;7.88;;;1.20;99.90;;;;;;5006785;28;20034;-75
2022/01/19 07:08:08;;;;;;;7.88;7.13;;;1.20;99.90;;;;;;5000719;28;20029;-74
2022/01/19 07:10:34;;;;;;;9.25;8.35;;;1.20;99.90;;;;;;4982447;28;20026;-74
2022/01/19 07:13:01;;;;;;;8.85;7.95;;;1.30;99.90;;;;;;4988800;28;20546;-74
2022/01/19 07:15:27;;;;;;;9.48;8.52;;;1.20;99.90;;;;;;4989238;28;20080;-74
2022/01/19 07:17:52;;;;;;;10.38;9.38;;;1.30;99.90;;;;;;5000466;28;20419;-74
2022/01/19 07:20:19;;;;;;;10.50;9.50;;;1.20;99.90;;;;;;4999498;28;20038;-74
2022/01/19 07:22:44;;;;;;;9.52;8.68;;;1.20;99.90;;;;;;5006474;28;20022;-74
2022/01/19 07:25:10;;;;;;;9.57;8.57;;;1.30;99.90;;;;;;5006388;28;20032;-74
2022/01/19 07:27:36;;;;;;;10.15;8.25;;;1.30;99.90;;;;;;5006165;28;20030;-74
2022/01/19 07:30:03;;;;;;;10.70;9.60;;;1.30;99.90;;;;;;5006341;28;20104;-74
2022/01/19 07:32:33;;;;;;;10.60;9.05;;;1.20;99.90;;;;;;4982368;28;20066;-74
2022/01/19 07:34:59;;;;;;;12.88;10.10;;;1.10;99.90;;;;;;4994467;28;20459;-76
2022/01/19 07:37:24;;;;;;;11.75;10.57;;;1.10;99.90;;;;;;5012608;28;20105;-78
2022/01/19 07:39:50;;;;;;;12.40;11.13;;;1.20;99.90;;;;;;4999622;28;20182;-76
2022/01/19 07:42:16;;;;;;;12.68;10.45;;;1.30;99.90;;;;;;5012503;28;20543;-76
2022/01/19 07:44:41;;;;;;;12.82;11.30;;;1.40;99.90;;;;;;5000475;28;20026;-76
2022/01/19 07:47:07;;;;;;;14.48;12.90;;;1.50;99.90;;;;;;5023042;28;20026;-76
2022/01/19 07:49:33;;;;;;;13.48;12.13;;;1.60;99.90;;;;;;5026089;28;20025;-75
2022/01/19 07:51:58;;;;;;;175.23;123.35;;;1.60;99.90;;;;;;5010293;28;20496;-76
2022/01/19 07:54:24;;;;;;;35.70;25.48;;;1.50;99.90;;;;;;5008649;28;20022;-76
2022/01/19 07:56:50;;;;;;;59.38;41.55;;;1.50;99.90;;;;;;5004840;28;20472;-76
2022/01/19 07:59:16;;;;;;;13.82;12.02;;;1.60;99.90;;;;;;5006702;28;20112;-76
2022/01/19 08:01:43;;;;;;;15.20;12.45;;;1.50;99.90;;;;;;5012084;28;20028;-76
2022/01/19 08:04:09;;;;;;;15.18;13.57;;;1.50;99.90;;;;;;4980601;28;20029;-75
2022/01/19 08:06:35;;;;;;;15.15;13.20;;;1.60;99.90;;;;;;5000387;28;20097;-75
2022/01/19 08:09:00;;;;;;;15.75;14.10;;;1.60;99.90;;;;;;4997396;28;20444;-75
2022/01/19 08:11:26;;;;;;;14.93;12.45;;;1.70;99.90;;;;;;4999800;28;20033;-76
2022/01/19 08:13:52;;;;;;;12.05;10.27;;;1.80;99.90;;;;;;4998999;28;20097;-76
2022/01/19 08:16:18;;;;;;;14.35;10.35;;;1.80;99.90;;;;;;5012106;28;20084;-76
2022/01/19 08:18:44;;;;;;;12.50;10.45;;;1.80;99.90;;;;;;4998742;28;20488;-76
2022/01/19 08:21:09;;;;;;;13.15;9.98;;;1.70;99.90;;;;;;5005044;28;20031;-76
2022/01/19 08:23:35;;;;;;;12.55;10.45;;;1.70;99.90;;;;;;4988322;28;20076;-76
2022/01/19 08:26:01;;;;;;;11.50;8.90;;;1.70;99.90;;;;;;5005396;28;20085;-75
2022/01/19 08:28:26;;;;;;;12.32;9.20;;;1.70;99.90;;;;;;4987977;28;20033;-74
2022/01/19 08:30:52;;;;;;;12.20;9.80;;;1.80;99.90;;;;;;5000771;28;20026;-73
2022/01/19 08:33:17;;;;;;;10.57;9.48;;;1.70;99.90;;;;;;4994348;28;20076;-74
2022/01/19 08:35:43;;;;;;;13.15;9.60;;;1.80;99.90;;;;;;4987032;28;20030;-74
2022/01/19 08:38:09;;;;;;;10.65;8.73;;;1.80;99.90;;;;;;4988396;28;20396;-75
2022/01/19 08:40:36;;;;;;;10.60;8.60;;;1.70;99.90;;;;;;5011485;28;20033;-74
2022/01/19 08:43:03;;;;;;;10.25;8.75;;;1.80;99.90;;;;;;4981049;28;20022;-74
2022/01/19 08:45:29;;;;;;;12.35;9.07;;;1.70;99.90;;;;;;5011839;28;20030;-74
2022/01/19 08:47:55;;;;;;;13.68;10.13;;;1.80;99.90;;;;;;5000060;28;20018;-74
2022/01/19 08:50:21;;;;;;;13.43;9.80;;;1.80;99.90;;;;;;5004371;28;20033;-74
2022/01/19 08:52:47;;;;;;;11.15;9.43;;;1.90;99.90;;;;;;5001807;28;20026;-74
2022/01/19 08:55:14;;;;;;;12.15;10.10;;;1.80;99.90;;;;;;5011619;28;20018;-75
2022/01/19 08:57:40;;;;;;;12.75;9.93;;;1.80;99.90;;;;;;4994289;28;20453;-76
2022/01/19 09:00:11;;;;;;;12.52;11.15;;;1.80;99.90;;;;;;4986758;28;20077;-76
2022/01/19 09:02:37;;;;;;;13.27;11.80;;;1.80;99.90;;;;;;5005025;28;20057;-75
2022/01/19 09:05:04;;;;;;;15.38;12.65;;;1.80;99.90;;;;;;5000332;28;20463;-75
2022/01/19 09:07:30;;;;;;;14.88;13.38;;;1.90;99.90;;;;;;4998244;28;20023;-75
2022/01/19 09:09:57;;;;;;;13.13;10.70;;;1.90;99.90;;;;;;5005000;28;20105;-76
2022/01/19 09:12:22;;;;;;;11.73;10.50;;;2.00;99.90;;;;;;5006550;28;20515;-76
2022/01/19 09:14:48;;;;;;;11.27;10.05;;;2.10;99.90;;;;;;5007136;28;20105;-75
2022/01/19 09:17:13;;;;;;;12.93;11.07;;;2.30;99.90;;;;;;4997364;28;20049;-76
2022/01/19 09:19:40;;;;;;;15.32;11.25;;;2.30;99.90;;;;;;5009232;28;20029;-76
2022/01/19 09:22:10;;;;;;;13.65;11.13;;;2.50;99.90;;;;;;5003248;28;20419;-76
2022/01/19 09:24:37;;;;;;;11.52;9.10;;;2.50;99.90;;;;;;5015236;28;20026;-76
2022/01/19 09:27:04;;;;;;;12.95;9.57;;;2.50;99.90;;;;;;4984323;28;20649;-75
2022/01/19 09:29:30;;;;;;;14.70;10.00;;;2.40;99.90;;;;;;5007268;28;20545;-76
2022/01/19 09:32:00;;;;;;;15.57;12.15;;;2.50;99.90;;;;;;4992365;28;20472;-76
2022/01/19 09:34:26;;;;;;;13.85;10.77;;;2.40;99.90;;;;;;4996736;28;20026;-75
2022/01/19 09:36:52;;;;;;;18.90;14.18;;;2.50;99.90;;;;;;5001705;28;20537;-76
2022/01/19 09:39:23;;;;;;;14.40;12.13;;;2.50;99.90;;;;;;5014802;28;20116;-76
2022/01/19 09:41:49;;;;;;;10.35;9.13;;;2.60;99.90;;;;;;4984109;28;20392;-75
2022/01/19 09:44:19;;;;;;;10.77;9.50;;;2.60;99.90;;;;;;5005902;28;20018;-75
2022/01/19 09:46:45;;;;;;;12.63;10.38;;;2.70;99.90;;;;;;5010808;28;20019;-74
2022/01/19 09:49:12;;;;;;;13.20;10.93;;;2.60;99.90;;;;;;4988468;28;20111;-74
2022/01/19 09:51:42;;;;;;;13.27;10.02;;;2.70;99.90;;;;;;5001256;28;20026;-74
2022/01/19 09:54:08;;;;;;;12.18;10.60;;;2.70;99.90;;;;;;5003113;28;20038;-74
2022/01/19 09:56:34;;;;;;;15.07;9.98;;;2.70;99.90;;;;;;5008223;28;20023;-74
2022/01/19 09:58:59;;;;;;;11.90;9.70;;;2.90;99.90;;;;;;4989148;28;20554;-74
2022/01/19 10:01:26;;;;;;;13.18;9.00;;;2.80;99.90;;;;;;5001142;28;20698;-74
2022/01/19 10:03:53;;;;;;;10.00;9.00;;;2.80;99.90;;;;;;4996869;28;20587;-74
2022/01/19 10:06:22;;;;;;;11.70;9.02;;;2.80;99.90;;;;;;4983794;28;20032;-75
2022/01/19 10:08:56;;;;;;;13.82;10.15;;;3.00;99.90;;;;;;5001910;28;20109;-74
2022/01/19 10:16:58;;;;;;;11.77;9.77;;;3.20;99.90;;;;;;5001459;28;20022;-75
2022/01/19 10:17:06;;;;;;;12.90;8.95;;;3.30;99.90;;;;;;5007919;28;20113;-74
2022/01/19 10:19:33;;;;;;;11.85;8.52;;;3.30;99.90;;;;;;4992071;28;20040;-74
2022/01/19 10:22:01;;;;;;;10.77;9.23;;;3.20;99.90;;;;;;4983137;28;20060;-74
2022/01/19 10:24:51;;;;;;;11.90;8.05;;;3.20;99.90;;;;;;4989022;28;20022;-75
2022/01/19 10:27:22;;;;;;;13.43;8.38;;;3.10;99.90;;;;;;4989947;28;20022;-74
2022/01/19 10:30:08;;;;;;;12.43;7.25;;;3.10;99.90;;;;;;5005905;28;20053;-74
2022/01/19 10:32:49;;;;;;;10.18;7.05;;;3.30;99.90;;;;;;4982069;28;20120;-74
2022/01/19 10:35:19;;;;;;;10.32;7.80;;;3.00;99.90;;;;;;5012771;28;20036;-74
2022/01/19 10:37:47;;;;;;;13.15;8.07;;;2.90;99.90;;;;;;4994925;28;20037;-74
2022/01/19 10:40:15;;;;;;;14.93;9.20;;;3.00;99.90;;;;;;5006732;28;20109;-74
2022/01/19 10:42:40;;;;;;;10.00;7.28;;;3.00;99.90;;;;;;5009515;28;20121;-74
2022/01/19 10:45:08;;;;;;;12.35;8.10;;;3.10;99.90;;;;;;5019964;28;20507;-74
2022/01/19 10:47:58;;;;;;;12.13;7.68;;;3.10;99.90;;;;;;5019132;28;20045;-74
2022/01/19 10:50:30;;;;;;;9.73;7.05;;;3.10;99.90;;;;;;4993112;28;20022;-74
2022/01/19 10:53:01;;;;;;;11.77;7.15;;;3.00;99.90;;;;;;5010572;28;20033;-75
2022/01/19 10:55:39;;;;;;;12.13;7.88;;;2.90;99.90;;;;;;5013774;28;20115;-75
2022/01/19 10:58:11;;;;;;;11.32;7.80;;;3.00;99.90;;;;;;5021296;28;20450;-75
2022/01/19 11:00:37;;;;;;;12.27;8.77;;;2.80;99.90;;;;;;5019241;28;20038;-75
2022/01/19 11:03:18;;;;;;;12.93;9.40;;;2.60;99.90;;;;;;5008825;28;20028;-75
2022/01/19 11:05:51;;;;;;;13.63;9.50;;;2.70;99.90;;;;;;5013285;28;20018;-75
2022/01/19 11:08:18;;;;;;;14.15;9.52;;;2.60;99.90;;;;;;5007034;28;20068;-75
2022/01/19 11:10:48;;;;;;;17.08;10.90;;;2.70;99.90;;;;;;5027698;28;20025;-76
2022/01/19 11:13:28;;;;;;;13.60;9.85;;;2.60;99.90;;;;;;5018837;28;20022;-75
2022/01/19 11:15:58;;;;;;;13.38;9.02;;;2.60;99.90;;;;;;5009975;28;20100;-75
2022/01/19 11:18:29;;;;;;;14.68;9.77;;;2.60;99.90;;;;;;4995254;28;20026;-75
2022/01/19 11:20:56;;;;;;;14.45;10.02;;;2.50;99.90;;;;;;5012529;28;20029;-75
2022/01/19 11:23:40;;;;;;;14.85;10.38;;;2.40;99.90;;;;;;5011679;28;20079;-74
2022/01/19 11:26:14;;;;;;;15.00;10.50;;;2.20;99.90;;;;;;5005017;28;20058;-74
2022/01/19 11:28:45;;;;;;;13.68;11.90;;;2.10;99.90;;;;;;5012136;28;21041;-74
2022/01/19 11:31:19;;;;;;;13.48;11.32;;;1.90;99.90;;;;;;5019362;28;20034;-74
2022/01/19 11:33:53;;;;;;;16.33;11.18;;;1.70;99.90;;;;;;5023058;28;20029;-74
2022/01/19 11:36:26;;;;;;;14.23;11.55;;;1.70;99.90;;;;;;5016483;28;20360;-74
2022/01/19 11:39:09;;;;;;;17.20;12.00;;;1.70;99.90;;;;;;5015609;28;20060;-75
2022/01/19 11:41:54;;;;;;;15.93;12.63;;;1.70;99.90;;;;;;5019669;28;20028;-74
2022/01/19 11:44:32;;;;;;;15.20;12.60;;;1.80;99.90;;;;;;5011158;28;20025;-74
2022/01/19 11:47:29;;;;;;;18.45;15.27;;;1.80;99.90;;;;;;5017765;28;20108;-75
2022/01/19 11:50:04;;;;;;;17.27;14.88;;;2.00;99.90;;;;;;5007478;28;20442;-75
2022/01/19 11:52:34;;;;;;;15.93;13.73;;;2.00;99.90;;;;;;5019458;28;20026;-74
2022/01/19 11:55:14;;;;;;;14.75;12.40;;;1.90;99.90;;;;;;5018279;28;20022;-75
2022/01/19 11:57:41;;;;;;;14.32;12.45;;;2.10;99.90;;;;;;5010297;28;20112;-74
2022/01/19 12:00:11;;;;;;;15.35;13.40;;;2.00;99.90;;;;;;5011926;28;20050;-74
2022/01/19 12:02:42;;;;;;;17.83;13.40;;;2.10;99.90;;;;;;5014444;28;20013;-75
2022/01/19 12:05:16;;;;;;;18.42;13.95;;;2.00;99.90;;;;;;5002641;28;20071;-74
2022/01/19 12:07:55;;;;;;;18.35;14.55;;;2.10;99.90;;;;;;5014578;28;20022;-75
2022/01/19 12:10:38;;;;;;;17.50;14.65;;;2.20;99.90;;;;;;5011778;28;20106;-73
2022/01/19 12:16:18;;;;;;;18.17;14.98;;;2.20;99.90;;;;;;5022375;28;20025;-74
2022/01/19 12:18:51;;;;;;;16.02;13.23;;;2.40;99.90;;;;;;5021833;28;20029;-74
2022/01/19 12:21:32;;;;;;;17.27;15.20;;;2.30;99.90;;;;;;5011885;28;20074;-74
2022/01/19 12:24:21;;;;;;;19.55;15.23;;;2.40;99.90;;;;;;5020964;28;20030;-74
2022/01/19 12:26:54;;;;;;;17.33;13.75;;;2.40;99.90;;;;;;5022181;28;20025;-74
2022/01/19 12:29:38;;;;;;;23.90;14.60;;;2.40;99.90;;;;;;5011041;28;20044;-75
2022/01/19 12:32:08;;;;;;;18.88;14.00;;;2.40;99.90;;;;;;5001526;28;20064;-74
2022/01/19 12:34:47;;;;;;;17.05;14.43;;;2.50;99.90;;;;;;5000362;28;20496;-74
2022/01/19 12:37:32;;;;;;;17.23;14.27;;;2.60;99.90;;;;;;5012426;28;20112;-73
2022/01/19 12:39:57;;;;;;;18.92;14.70;;;2.50;99.90;;;;;;5017005;28;20038;-75
2022/01/19 12:42:28;;;;;;;18.33;15.48;;;2.50;99.90;;;;;;5009876;28;20484;-73
2022/01/19 12:44:56;;;;;;;20.23;16.42;;;2.30;99.90;;;;;;5010591;28;20467;-74
2022/01/19 12:47:25;;;;;;;16.80;14.77;;;2.40;99.90;;;;;;5011054;28;20018;-74
2022/01/19 12:50:09;;;;;;;18.45;14.68;;;2.60;99.90;;;;;;5014395;28;20025;-74
2022/01/19 12:52:49;;;;;;;17.83;15.00;;;2.70;99.90;;;;;;4999704;28;20022;-75
2022/01/19 12:55:21;;;;;;;17.33;14.85;;;2.80;99.90;;;;;;5012907;28;20100;-74
2022/01/19 12:57:48;;;;;;;18.27;14.80;;;2.80;99.90;;;;;;4998829;28;20021;-74
2022/01/19 13:00:17;;;;;;;15.98;14.05;;;2.70;99.90;;;;;;5015335;28;20026;-73
2022/01/19 13:02:43;;;;;;;19.77;15.48;;;2.60;99.90;;;;;;5001795;28;20022;-74
2022/01/19 13:05:15;;;;;;;17.98;15.05;;;2.30;99.90;;;;;;5015288;28;20030;-74
2022/01/19 13:07:51;;;;;;;19.83;15.65;;;2.30;99.90;;;;;;5015547;28;20014;-74
2022/01/19 13:10:40;;;;;;;22.10;16.23;;;2.40;99.90;;;;;;4988879;28;20041;-76
2022/01/19 13:13:11;;;;;;;24.48;18.75;;;2.20;99.90;;;;;;5013719;28;20124;-73
2022/01/19 13:15:42;;;;;;;25.75;19.23;;;2.10;99.90;;;;;;4995458;28;20052;-75
2022/01/19 13:18:09;;;;;;;22.05;17.40;;;2.00;99.90;;;;;;4996086;28;20480;-74
2022/01/19 13:20:36;;;;;;;21.98;16.30;;;2.00;99.90;;;;;;4999938;28;20084;-74
2022/01/19 13:23:04;;;;;;;21.48;18.33;;;2.00;99.90;;;;;;5014952;28;20399;-75
2022/01/19 13:25:32;;;;;;;19.73;16.02;;;2.10;99.90;;;;;;4996869;28;20014;-75
2022/01/19 13:27:59;;;;;;;21.30;17.23;;;2.00;99.90;;;;;;4996741;28;20030;-75
2022/01/19 13:30:27;;;;;;;19.25;16.02;;;2.00;99.90;;;;;;5014602;28;20494;-74
2022/01/19 13:32:54;;;;;;;21.73;17.80;;;2.10;99.90;;;;;;5014720;28;20084;-74
2022/01/19 13:35:21;;;;;;;21.63;18.17;;;2.30;99.90;;;;;;4997010;28;20060;-75
2022/01/19 13:37:55;;;;;;;23.40;17.83;;;2.40;99.90;;;;;;5014830;28;20566;-75
2022/01/19 13:40:33;;;;;;;20.90;17.67;;;2.40;99.90;;;;;;5011652;28;20057;-74
2022/01/19 13:43:11;;;;;;;24.83;18.88;;;2.30;99.90;;;;;;5014580;28;20018;-75
2022/01/19 13:48:28;;;;;;;23.85;21.25;;;2.30;99.90;;;;;;5014289;28;20709;-74
2022/01/19 13:51:02;;;;;;;28.80;22.42;;;2.30;99.90;;;;;;5014471;28;20392;-75
2022/01/19 13:53:31;;;;;;;27.55;21.33;;;2.30;99.90;;;;;;5007924;28;20115;-74
2022/01/19 13:55:58;;;;;;;32.88;23.33;;;2.30;99.90;;;;;;5014150;28;20100;-75
2022/01/19 13:58:33;;;;;;;27.63;19.23;;;2.30;99.90;;;;;;4996667;28;20076;-74
2022/01/19 14:01:02;;;;;;;24.77;18.55;;;2.30;99.90;;;;;;5013316;28;20053;-74
2022/01/19 14:03:57;;;;;;;21.70;18.40;;;2.20;99.90;;;;;;5014053;28;20080;-75
2022/01/19 14:06:25;;;;;;;26.35;19.13;;;2.20;99.90;;;;;;5019022;28;20532;-74
2022/01/19 14:09:04;;;;;;;22.85;19.27;;;2.10;99.90;;;;;;5014125;28;20018;-75
2022/01/19 14:11:30;;;;;;;25.88;19.40;;;2.20;99.90;;;;;;4990326;28;20017;-75
2022/01/19 14:14:26;;;;;;;25.17;19.85;;;2.10;99.90;;;;;;4999011;28;20038;-74
2022/01/19 14:16:55;;;;;;;22.45;18.10;;;2.10;99.90;;;;;;5009390;28;20048;-75
2022/01/19 14:19:29;;;;;;;25.50;20.48;;;2.00;99.90;;;;;;5014013;28;20049;-74
2022/01/19 14:22:20;;;;;;;30.27;24.17;;;2.00;99.90;;;;;;4999456;28;20026;-74
2022/01/19 14:24:49;;;;;;;26.75;21.48;;;2.00;99.90;;;;;;4996456;28;20037;-74